createdAt,value
2022-10-01T00:02:04.814Z,100323.41
2022-10-01T00:04:37.099Z,100252.59
2022-10-01T00:07:09.537Z,100313.78
2022-10-01T00:09:39.362Z,100270.06
2022-10-01T00:12:09.303Z,100263.06
2022-10-01T00:14:39.395Z,100275.31
2022-10-01T00:17:07.649Z,100265.69
2022-10-01T00:19:37.291Z,100263.06
2022-10-01T00:22:05.594Z,100282.31
2022-10-01T00:24:34.004Z,100313.78
2022-10-01T00:27:02.230Z,100320.78
2022-10-01T00:29:31.796Z,100312.06
2022-10-01T00:32:00.100Z,100274.44
2022-10-01T00:34:28.761Z,100333.00
2022-10-01T00:36:58.677Z,100329.50
2022-10-01T00:39:26.937Z,100292.81
2022-10-01T00:41:55.436Z,100316.41
2022-10-01T00:44:33.268Z,100246.47
2022-10-01T00:47:14.731Z,100284.06
2022-10-01T00:49:46.499Z,100256.06
2022-10-01T00:52:20.267Z,100284.94
2022-10-01T00:54:53.566Z,100254.34
2022-10-01T00:57:26.498Z,100267.44
2022-10-01T00:59:59.130Z,100250.84
2022-10-01T01:02:27.620Z,100208.91
2022-10-01T01:04:56.078Z,100223.75
2022-10-01T01:07:25.818Z,100219.38
2022-10-01T01:09:55.886Z,100216.78
2022-10-01T01:12:45.396Z,100234.25
2022-10-01T01:15:22.306Z,100160.88
2022-10-01T01:18:03.474Z,100127.66
2022-10-01T01:21:05.547Z,100209.78
2022-10-01T01:23:55.694Z,100169.63
2022-10-01T01:26:35.145Z,100178.31
2022-10-01T01:29:10.255Z,100132.94
2022-10-01T01:31:43.007Z,100164.38
2022-10-01T01:34:15.221Z,100151.28
2022-10-01T01:36:51.363Z,100084.91
2022-10-01T01:39:22.552Z,100095.38
2022-10-01T01:42:01.126Z,100127.69
2022-10-01T01:44:36.784Z,100197.56
2022-10-01T01:47:07.965Z,99982.81
2022-10-01T01:49:36.592Z,100133.78
2022-10-01T01:52:13.309Z,100178.31
2022-10-01T01:54:44.432Z,100097.13
2022-10-01T01:57:14.136Z,100087.53
2022-10-01T01:59:44.264Z,100175.69
2022-10-01T02:02:16.674Z,100013.31
2022-10-01T02:04:50.686Z,100185.28
2022-10-01T02:08:12.861Z,100178.28
2022-10-01T02:11:02.669Z,100173.94
2022-10-01T02:13:44.304Z,100139.88
2022-10-01T02:16:22.559Z,100118.06
2022-10-01T02:19:01.604Z,100156.50
2022-10-01T02:21:36.149Z,100155.56
2022-10-01T02:24:14.425Z,100133.75
2022-10-01T02:26:46.094Z,100186.13
2022-10-01T02:29:20.805Z,100118.03
2022-10-01T02:31:55.624Z,100167.81
2022-10-01T02:34:29.852Z,100130.25
2022-10-01T02:37:02.592Z,100181.75
2022-10-01T02:39:34.456Z,100094.50
2022-10-01T02:42:05.124Z,100171.28
2022-10-01T02:44:38.568Z,100120.66
2022-10-01T02:47:15.416Z,100159.03
2022-10-01T02:49:43.981Z,100095.31
2022-10-01T02:52:21.652Z,100114.53
2022-10-01T02:54:56.881Z,100151.19
2022-10-01T02:57:27.235Z,100123.22
2022-10-01T02:59:59.230Z,100163.41
2022-10-01T03:02:32.163Z,100101.41
2022-10-01T03:05:01.999Z,100132.84
2022-10-01T03:07:35.008Z,100111.00
2022-10-01T03:10:03.577Z,100135.41
2022-10-01T03:12:31.858Z,100177.31
2022-10-01T03:15:00.149Z,100173.84
2022-10-01T03:17:30.666Z,100179.06
2022-10-01T03:20:02.407Z,100174.66
2022-10-01T03:22:31.503Z,100144.13
2022-10-01T03:24:59.938Z,100164.13
2022-10-01T03:27:28.218Z,100164.16
2022-10-01T03:29:56.513Z,100088.22
2022-10-01T03:32:24.747Z,100171.09
2022-10-01T03:34:54.318Z,100161.47
2022-10-01T03:37:22.590Z,100151.81
2022-10-01T03:39:50.871Z,100170.16
2022-10-01T03:42:19.158Z,100138.72
2022-10-01T03:44:47.921Z,100125.63
2022-10-01T03:47:16.211Z,100167.50
2022-10-01T03:49:44.459Z,100154.41
2022-10-01T03:52:14.045Z,100178.84
2022-10-01T03:54:42.270Z,100174.41
2022-10-01T03:57:10.632Z,100172.69
2022-10-01T03:59:38.914Z,100175.22
2022-10-01T04:02:07.885Z,100189.25
2022-10-01T04:04:36.239Z,100184.84
2022-10-01T04:07:04.581Z,100191.84
2022-10-01T04:09:34.218Z,100177.84
2022-10-01T04:12:03.332Z,100183.03
2022-10-01T04:14:31.601Z,100187.31
2022-10-01T04:17:00.181Z,100185.53
2022-10-01T04:19:28.484Z,100177.66
2022-10-01T04:21:57.159Z,100183.72
2022-10-01T04:24:25.436Z,100189.00
2022-10-01T04:26:55.123Z,100167.16
2022-10-01T04:29:23.447Z,100194.19
2022-10-01T04:31:53.452Z,100129.66
2022-10-01T04:34:42.448Z,100128.84
2022-10-01T04:37:10.791Z,100161.16
2022-10-01T04:39:39.216Z,100201.19
2022-10-01T04:42:08.846Z,100185.53
2022-10-01T04:44:37.116Z,100214.34
2022-10-01T04:47:05.568Z,100224.69
2022-10-01T04:49:34.121Z,100195.97
2022-10-01T04:52:03.112Z,100235.25
2022-10-01T04:54:31.418Z,100237.78
2022-10-01T04:56:59.789Z,100235.94
2022-10-01T04:59:29.453Z,100220.25
2022-10-01T05:01:57.784Z,100160.81
2022-10-01T05:04:27.245Z,100239.31
2022-10-01T05:06:56.079Z,100243.81
2022-10-01T05:09:24.358Z,100203.72
2022-10-01T05:11:52.643Z,100252.56
2022-10-01T05:14:21.283Z,100255.09
2022-10-01T05:16:50.965Z,100260.28
2022-10-01T05:19:19.231Z,100258.41
2022-10-01T05:21:47.506Z,100228.88
2022-10-01T05:24:17.319Z,100210.38
2022-10-01T05:26:45.629Z,100253.81
2022-10-01T05:29:14.924Z,100257.44
2022-10-01T05:31:44.333Z,100270.63
2022-10-01T05:34:14.436Z,100281.94
2022-10-01T05:36:42.820Z,100243.66
2022-10-01T05:39:11.994Z,100288.50
2022-10-01T05:41:40.957Z,100258.00
2022-10-01T05:44:09.505Z,100239.66
2022-10-01T05:46:37.875Z,100253.59
2022-10-01T05:49:07.029Z,100226.56
2022-10-01T05:51:37.204Z,100305.13
2022-10-01T05:54:05.831Z,100306.75
2022-10-01T05:56:34.150Z,100321.53
2022-10-01T05:59:02.478Z,100318.00
2022-10-01T06:01:31.832Z,100246.56
2022-10-01T06:04:00.567Z,100311.09
2022-10-01T06:06:30.320Z,100288.41
2022-10-01T06:09:00.809Z,100322.44
2022-10-01T06:11:29.210Z,100325.19
2022-10-01T06:13:57.541Z,100329.47
2022-10-01T06:16:25.918Z,100330.44
2022-10-01T06:18:57.522Z,100277.22
2022-10-01T06:21:26.554Z,100342.63
2022-10-01T06:23:55.472Z,100325.19
2022-10-01T06:26:25.203Z,100259.63
2022-10-01T06:28:53.472Z,100333.75
2022-10-01T06:31:22.503Z,100339.00
2022-10-01T06:33:50.971Z,100338.09
2022-10-01T06:36:19.263Z,100305.75
2022-10-01T06:38:50.198Z,100345.84
2022-10-01T06:41:18.672Z,100350.03
2022-10-01T06:43:50.959Z,100315.81
2022-10-01T06:46:19.239Z,100359.63
2022-10-01T06:48:47.783Z,100361.25
2022-10-01T06:51:16.070Z,100311.41
2022-10-01T06:53:44.319Z,100359.41
2022-10-01T06:56:13.286Z,100360.13
2022-10-01T06:58:43.305Z,100358.25
2022-10-01T07:01:13.185Z,100362.38
2022-10-01T07:03:41.511Z,100364.00
2022-10-01T07:06:11.258Z,100299.00
2022-10-01T07:08:39.648Z,100335.56
2022-10-01T07:11:08.242Z,100402.09
2022-10-01T07:13:36.556Z,100404.00
2022-10-01T07:16:05.186Z,100231.47
2022-10-01T07:18:34.862Z,100433.50
2022-10-01T07:21:03.132Z,100413.63
2022-10-01T07:23:31.447Z,100402.19
2022-10-01T07:26:00.012Z,100368.91
2022-10-01T07:28:28.451Z,100325.25
2022-10-01T07:31:03.028Z,100392.53
2022-10-01T07:33:31.617Z,100403.00
2022-10-01T07:36:04.520Z,100414.44
2022-10-01T07:38:33.720Z,100413.63
2022-10-01T07:41:03.634Z,100347.13
2022-10-01T07:43:34.628Z,100331.53
2022-10-01T07:46:03.646Z,100370.03
2022-10-01T07:48:32.048Z,100432.31
2022-10-01T07:51:00.421Z,100436.69
2022-10-01T07:53:30.322Z,100440.22
2022-10-01T07:56:02.497Z,100406.09
2022-10-01T07:58:30.867Z,100448.88
2022-10-01T08:01:00.657Z,100414.81
2022-10-01T08:03:29.063Z,100465.59
2022-10-01T08:05:57.379Z,100459.38
2022-10-01T08:08:25.660Z,100454.97
2022-10-01T08:10:55.243Z,100472.50
2022-10-01T08:13:25.021Z,100433.03
2022-10-01T08:15:54.893Z,100453.84
2022-10-01T08:18:24.536Z,100362.88
2022-10-01T08:20:53.281Z,100404.72
2022-10-01T08:23:22.016Z,100468.25
2022-10-01T08:25:50.394Z,100496.88
2022-10-01T08:28:20.124Z,100478.41
2022-10-01T08:30:48.472Z,100490.44
2022-10-01T08:33:16.691Z,100443.84
2022-10-01T08:35:45.218Z,100497.75
2022-10-01T08:38:14.465Z,100495.16
2022-10-01T08:40:49.659Z,100459.38
2022-10-01T08:43:36.448Z,100465.44
2022-10-01T08:46:07.967Z,100507.75
2022-10-01T08:48:57.139Z,100429.22
2022-10-01T08:51:34.010Z,100493.72
2022-10-01T08:54:17.793Z,100460.63
2022-10-01T08:56:48.117Z,100490.38
2022-10-01T08:59:37.095Z,100535.69
2022-10-01T09:02:22.130Z,100495.44
2022-10-01T09:04:58.915Z,100529.13
2022-10-01T09:07:46.269Z,100499.78
2022-10-01T09:10:36.898Z,100503.16
2022-10-01T09:13:51.783Z,100528.81
2022-10-01T09:16:29.659Z,100484.19
2022-10-01T09:19:21.088Z,100498.59
2022-10-01T09:21:58.278Z,100534.66
2022-10-01T09:24:42.143Z,100548.31
2022-10-01T09:27:16.438Z,100545.63
2022-10-01T09:29:50.722Z,100525.34
2022-10-01T09:32:25.771Z,100428.66
2022-10-01T09:34:55.708Z,100555.31
2022-10-01T09:37:36.661Z,100541.25
2022-10-01T09:40:15.861Z,100560.22
2022-10-01T09:42:44.582Z,100558.34
2022-10-01T09:45:15.195Z,100475.28
2022-10-01T09:47:49.445Z,100554.81
2022-10-01T09:50:23.134Z,100499.81
2022-10-01T09:52:53.585Z,100555.72
2022-10-01T09:55:33.782Z,100561.69
2022-10-01T09:58:09.423Z,100565.72
2022-10-01T10:00:40.236Z,100568.88
2022-10-01T10:03:10.274Z,100428.81
2022-10-01T10:05:46.795Z,100551.19
2022-10-01T10:08:19.460Z,100579.34
2022-10-01T10:10:53.485Z,100578.47
2022-10-01T10:13:31.600Z,100514.78
2022-10-01T10:16:02.324Z,100549.53
2022-10-01T10:18:35.717Z,100559.78
2022-10-01T10:21:08.965Z,100559.25
2022-10-01T10:23:50.216Z,100573.69
2022-10-01T10:26:28.718Z,100532.97
2022-10-01T10:28:57.704Z,100601.78
2022-10-01T10:31:29.358Z,100581.28
2022-10-01T10:34:07.192Z,100546.63
2022-10-01T10:36:38.018Z,100521.28
2022-10-01T10:39:11.660Z,100562.31
2022-10-01T10:41:48.065Z,100598.38
2022-10-01T10:44:21.413Z,100632.28
2022-10-01T10:46:51.670Z,100609.94
2022-10-01T10:49:26.335Z,100606.41
2022-10-01T10:51:57.243Z,100600.66
2022-10-01T10:54:31.479Z,100627.41
2022-10-01T10:57:03.311Z,100617.28
2022-10-01T10:59:34.289Z,100654.78
2022-10-01T11:02:05.410Z,100642.66
2022-10-01T11:04:45.196Z,100620.28
2022-10-01T11:07:20.866Z,100637.91
2022-10-01T11:10:26.606Z,100638.69
2022-10-01T11:13:14.566Z,100633.94
2022-10-01T11:16:05.086Z,100659.69
2022-10-01T11:19:03.370Z,100625.59
2022-10-01T11:21:56.408Z,100659.25
2022-10-01T11:24:54.825Z,100635.19
2022-10-01T11:27:36.731Z,100670.72
2022-10-01T11:30:11.837Z,100607.84
2022-10-01T11:32:46.524Z,100639.78
2022-10-01T11:35:42.154Z,100637.56
2022-10-01T11:38:37.914Z,100682.78
2022-10-01T11:41:20.112Z,100691.38
2022-10-01T11:43:54.236Z,100686.94
2022-10-01T11:46:53.422Z,100678.84
2022-10-01T11:49:55.303Z,100697.31
2022-10-01T11:52:34.550Z,100703.97
2022-10-01T11:55:34.205Z,100585.66
2022-10-01T11:58:31.032Z,100669.91
2022-10-01T12:01:10.934Z,100665.59
2022-10-01T12:03:55.700Z,100714.44
2022-10-01T12:06:33.767Z,100708.09
2022-10-01T12:09:09.210Z,100688.47
2022-10-01T12:11:46.911Z,100702.41
2022-10-01T12:14:21.092Z,100662.50
2022-10-01T12:16:56.000Z,100717.69
2022-10-01T12:19:30.905Z,100721.19
2022-10-01T12:22:05.900Z,100676.16
2022-10-01T12:24:42.463Z,100674.09
2022-10-01T12:27:47.966Z,100661.66
2022-10-01T12:30:20.668Z,100737.31
2022-10-01T12:33:08.452Z,100737.47
2022-10-01T12:35:58.542Z,100708.66
2022-10-01T12:38:51.065Z,100739.25
2022-10-01T12:41:33.466Z,100743.34
2022-10-01T12:44:32.698Z,100735.09
2022-10-01T12:47:20.508Z,100738.56
2022-10-01T12:49:57.506Z,100716.06
2022-10-01T12:52:46.731Z,100720.50
2022-10-01T12:55:50.150Z,100747.94
2022-10-01T12:58:57.104Z,100722.59
2022-10-01T13:01:44.433Z,100766.47
2022-10-01T13:04:39.479Z,100768.91
2022-10-01T13:07:32.326Z,100728.97
2022-10-01T13:10:15.998Z,100778.56
2022-10-01T13:12:59.583Z,100786.53
2022-10-01T13:15:33.943Z,100748.72
2022-10-01T13:18:16.276Z,100760.31
2022-10-01T13:20:54.258Z,100793.50
2022-10-01T13:23:32.205Z,100799.56
2022-10-01T13:26:09.599Z,100762.03
2022-10-01T13:28:56.747Z,100796.44
2022-10-01T13:31:41.416Z,100812.84
2022-10-01T13:34:37.646Z,100817.50
2022-10-01T13:37:18.601Z,100804.16
2022-10-01T13:39:48.309Z,100809.13
2022-10-01T13:42:27.147Z,100807.34
2022-10-01T13:44:59.638Z,100817.09
2022-10-01T13:47:29.272Z,100806.13
2022-10-01T13:50:07.786Z,100786.41
2022-10-01T13:52:36.456Z,100819.59
2022-10-01T13:55:05.444Z,100811.91
2022-10-01T13:57:37.118Z,100848.56
2022-10-01T14:00:24.590Z,100794.69
2022-10-01T14:03:07.494Z,100825.91
2022-10-01T14:05:43.369Z,100850.75
2022-10-01T14:08:19.133Z,100879.75
2022-10-01T14:11:14.552Z,100870.44
2022-10-01T14:14:06.109Z,100885.56
2022-10-01T14:16:39.021Z,100860.13
2022-10-01T14:19:07.500Z,100902.94
2022-10-01T14:22:04.345Z,100900.25
2022-10-01T14:24:48.122Z,100904.44
2022-10-01T14:27:24.243Z,100849.81
2022-10-01T14:30:07.193Z,100916.59
2022-10-01T14:33:06.358Z,100904.78
2022-10-01T14:35:39.544Z,100918.75
2022-10-01T14:38:20.118Z,100895.28
2022-10-01T14:40:50.338Z,100931.09
2022-10-01T14:43:21.919Z,100897.22
2022-10-01T14:45:59.383Z,100903.03
2022-10-01T14:48:30.265Z,100934.13
2022-10-01T14:51:01.437Z,100921.00
2022-10-01T14:53:35.202Z,100945.56
2022-10-01T14:56:09.098Z,100940.53
2022-10-01T14:58:40.938Z,100954.72
2022-10-01T15:01:18.755Z,100951.19
2022-10-01T15:03:47.967Z,100912.72
2022-10-01T15:06:19.120Z,100965.22
2022-10-01T15:08:50.777Z,100961.81
2022-10-01T15:11:23.179Z,100915.47
2022-10-01T15:13:54.298Z,100923.31
2022-10-01T15:16:25.908Z,100866.22
2022-10-01T15:19:00.853Z,100990.72
2022-10-01T15:21:35.916Z,100989.94
2022-10-01T15:24:12.868Z,100957.31
2022-10-01T15:26:41.229Z,100989.09
2022-10-01T15:29:16.601Z,100974.25
2022-10-01T15:31:46.638Z,100991.66
2022-10-01T15:34:18.310Z,100908.25
2022-10-01T15:36:48.862Z,100904.94
2022-10-01T15:39:32.488Z,101011.72
2022-10-01T15:42:08.728Z,100970.56
2022-10-01T15:44:47.443Z,101016.22
2022-10-01T15:47:32.775Z,101021.47
2022-10-01T15:50:19.153Z,101011.84
2022-10-01T15:52:53.204Z,101018.19
2022-10-01T15:55:31.994Z,101010.19
2022-10-01T15:58:11.659Z,101030.34
2022-10-01T16:00:56.968Z,101026.75
2022-10-01T16:03:31.274Z,101021.63
2022-10-01T16:06:02.161Z,101039.38
2022-10-01T16:08:35.334Z,101032.44
2022-10-01T16:11:20.943Z,101017.69
2022-10-01T16:13:52.769Z,101046.63
2022-10-01T16:16:27.596Z,101021.25
2022-10-01T16:19:00.345Z,100960.97
2022-10-01T16:21:29.430Z,101020.53
2022-10-01T16:23:57.767Z,101045.19
2022-10-01T16:26:41.032Z,101039.03
2022-10-01T16:29:26.015Z,100990.81
2022-10-01T16:31:54.575Z,101060.97
2022-10-01T16:34:22.895Z,101059.16
2022-10-01T16:36:52.205Z,101066.34
2022-10-01T16:39:20.666Z,101018.03
2022-10-01T16:42:12.112Z,101010.13
2022-10-01T16:44:40.967Z,101033.91
2022-10-01T16:47:12.524Z,101090.13
2022-10-01T16:49:41.492Z,101083.16
2022-10-01T16:52:14.735Z,101094.53
2022-10-01T16:54:44.345Z,101104.19
2022-10-01T16:57:15.266Z,101070.94
2022-10-01T16:59:43.982Z,101111.34
2022-10-01T17:02:14.145Z,101120.16
2022-10-01T17:04:42.539Z,101090.38
2022-10-01T17:07:10.771Z,101097.34
2022-10-01T17:09:39.063Z,101089.44
2022-10-01T17:12:07.627Z,101078.91
2022-10-01T17:14:37.407Z,101102.69
2022-10-01T17:17:05.838Z,101137.00
2022-10-01T17:19:34.538Z,101010.47
2022-10-01T17:22:04.319Z,101134.25
2022-10-01T17:24:32.612Z,101143.94
2022-10-01T17:27:01.114Z,101145.66
2022-10-01T17:29:31.025Z,101146.59
2022-10-01T17:32:00.744Z,101138.72
2022-10-01T17:34:29.005Z,100906.94
2022-10-01T17:36:59.758Z,101159.84
2022-10-01T17:39:28.270Z,101127.38
2022-10-01T17:41:56.682Z,101174.91
2022-10-01T17:44:25.070Z,101061.50
2022-10-01T17:46:53.353Z,101183.69
2022-10-01T17:49:28.056Z,101153.81
2022-10-01T17:51:56.564Z,101168.75
2022-10-01T17:54:25.589Z,101173.16
2022-10-01T17:56:55.116Z,101172.25
2022-10-01T17:59:23.575Z,101186.38
2022-10-01T18:01:53.063Z,101190.72
2022-10-01T18:04:25.894Z,101128.28
2022-10-01T18:06:59.118Z,101192.47
2022-10-01T18:09:28.390Z,101189.81
2022-10-01T18:11:56.729Z,101224.13
2022-10-01T18:14:25.107Z,101244.31
2022-10-01T18:16:53.506Z,101222.34
2022-10-01T18:19:52.805Z,101240.84
2022-10-01T18:22:14.348Z,101247.84
2022-10-01T18:24:42.837Z,101253.09
2022-10-01T18:27:11.102Z,101214.38
2022-10-01T18:29:39.870Z,101260.16
2022-10-01T18:32:16.993Z,101240.78
2022-10-01T18:34:54.448Z,101267.22
2022-10-01T18:37:39.078Z,101246.03
2022-10-01T18:40:13.620Z,101275.94
2022-10-01T18:42:49.775Z,101279.50
2022-10-01T18:45:28.155Z,101247.78
2022-10-01T18:48:19.393Z,101257.47
2022-10-01T18:50:55.235Z,101278.59
2022-10-01T18:53:51.267Z,101287.38
2022-10-01T18:56:29.204Z,101059.41
2022-10-01T18:59:38.481Z,101293.56
2022-10-01T19:02:41.146Z,101222.19
2022-10-01T19:05:57.541Z,101293.41
2022-10-01T19:08:50.360Z,101302.19
2022-10-01T19:11:29.982Z,101280.13
2022-10-01T19:14:14.543Z,101301.28
2022-10-01T19:16:53.420Z,101313.53
2022-10-01T19:19:35.869Z,101239.50
2022-10-01T19:22:18.438Z,101317.00
2022-10-01T19:25:06.480Z,101316.06
2022-10-01T19:27:52.407Z,101316.84
2022-10-01T19:30:21.100Z,101313.34
2022-10-01T19:32:57.526Z,101335.41
2022-10-01T19:35:32.595Z,101315.22
2022-10-01T19:38:07.310Z,101301.09
2022-10-01T19:40:42.880Z,101316.88
2022-10-01T19:43:20.123Z,101324.91
2022-10-01T19:45:55.792Z,101324.91
2022-10-01T19:48:31.794Z,101316.03
2022-10-01T19:51:09.431Z,101268.44
2022-10-01T19:53:39.945Z,101320.50
2022-10-01T19:56:18.661Z,101324.88
2022-10-01T19:58:47.670Z,101324.72
2022-10-01T20:01:22.591Z,101291.34
2022-10-01T20:04:00.737Z,101375.13
2022-10-01T20:06:34.789Z,101385.59
2022-10-01T20:09:12.400Z,101348.56
2022-10-01T20:11:49.950Z,101306.25
2022-10-01T20:14:56.395Z,101379.44
2022-10-01T20:17:32.162Z,101328.19
2022-10-01T20:20:11.313Z,101392.53
2022-10-01T20:22:52.002Z,101374.94
2022-10-01T20:25:29.642Z,101404.91
2022-10-01T20:28:09.799Z,101413.69
2022-10-01T20:30:48.676Z,101405.78
2022-10-01T20:33:25.946Z,101405.84
2022-10-01T20:36:07.246Z,101386.41
2022-10-01T20:38:42.435Z,101425.28
2022-10-01T20:41:17.593Z,101423.53
2022-10-01T20:43:52.101Z,101424.41
2022-10-01T20:46:38.618Z,101391.78
2022-10-01T20:49:23.223Z,101426.09
2022-10-01T20:52:00.222Z,101367.06
2022-10-01T20:54:36.293Z,101401.38
2022-10-01T20:57:13.796Z,101427.75
2022-10-01T20:59:47.700Z,101433.03
2022-10-01T21:02:29.810Z,101429.41
2022-10-01T21:05:05.318Z,101445.28
2022-10-01T21:07:40.664Z,101421.31
2022-10-01T21:10:24.271Z,101448.84
2022-10-01T21:13:12.001Z,101428.56
2022-10-01T21:15:55.956Z,101457.59
2022-10-01T21:18:40.228Z,101441.78
2022-10-01T21:21:21.983Z,101458.50
2022-10-01T21:24:10.119Z,101455.88
2022-10-01T21:26:53.443Z,101422.38
2022-10-01T21:29:41.264Z,101390.50
2022-10-01T21:32:26.035Z,101399.38
2022-10-01T21:35:07.995Z,101465.56
2022-10-01T21:37:42.905Z,101467.34
2022-10-01T21:40:25.716Z,101469.03
2022-10-01T21:43:05.206Z,101447.84
2022-10-01T21:45:43.822Z,101462.88
2022-10-01T21:48:39.935Z,101466.47
2022-10-01T21:51:18.459Z,101417.88
2022-10-01T21:54:23.043Z,101475.97
2022-10-01T21:57:12.070Z,101454.75
2022-10-01T22:00:08.021Z,101468.84
2022-10-01T22:02:48.788Z,101490.84
2022-10-01T22:05:29.276Z,101399.19
2022-10-01T22:08:14.566Z,101492.75
2022-10-01T22:10:47.721Z,101431.81
2022-10-01T22:13:21.102Z,101467.84
2022-10-01T22:15:53.507Z,101476.75
2022-10-01T22:18:33.916Z,101502.41
2022-10-01T22:21:10.173Z,101492.81
2022-10-01T22:23:42.792Z,101436.47
2022-10-01T22:26:18.211Z,101414.44
2022-10-01T22:28:53.174Z,101496.50
2022-10-01T22:31:27.213Z,101482.44
2022-10-01T22:34:01.943Z,101493.88
2022-10-01T22:36:37.363Z,101509.78
2022-10-01T22:39:12.727Z,101499.25
2022-10-01T22:41:46.286Z,101467.41
2022-10-01T22:44:16.943Z,101497.41
2022-10-01T22:47:13.061Z,101503.53
2022-10-01T22:50:06.179Z,101518.28
2022-10-01T22:52:44.705Z,101530.50
2022-10-01T22:55:26.226Z,101557.00
2022-10-01T22:58:13.307Z,101536.66
2022-10-01T23:00:54.966Z,101565.09
2022-10-01T23:03:36.975Z,101544.94
2022-10-01T23:06:12.896Z,101554.72
2022-10-01T23:08:51.539Z,101549.56
2022-10-01T23:11:27.407Z,101538.22
2022-10-01T23:14:06.448Z,101484.34
2022-10-01T23:16:45.090Z,101535.56
2022-10-01T23:19:31.115Z,101478.94
2022-10-01T23:22:08.282Z,101532.81
2022-10-01T23:24:53.492Z,101466.63
2022-10-01T23:27:35.546Z,101459.59
2022-10-01T23:30:12.060Z,101492.97
2022-10-01T23:33:04.549Z,101508.91
2022-10-01T23:35:48.324Z,101431.16
2022-10-01T23:38:43.958Z,101526.41
2022-10-01T23:41:28.657Z,101477.06
2022-10-01T23:44:09.756Z,101530.72
2022-10-01T23:46:41.009Z,101487.41
2022-10-01T23:49:17.245Z,101528.78
2022-10-01T23:51:53.491Z,101539.34
2022-10-01T23:54:31.389Z,101546.34
2022-10-01T23:57:09.946Z,101482.75
2022-10-01T23:59:44.369Z,101529.44
